地図

経路データ

SID SEASON NUMBER BASIN SUBBASIN NAME ISO_TIME NATURE LAT LON WMO_WIND WMO_PRES WMO_AGENCY TRACK_TYPE DIST2LAND LANDFALL IFLAG USA_AGENCY USA_ATCF_ID USA_LAT USA_LON USA_RECORD USA_STATUS USA_WIND USA_PRES USA_SSHS USA_R34_NE USA_R34_SE USA_R34_SW USA_R34_NW USA_R50_NE USA_R50_SE USA_R50_SW USA_R50_NW USA_R64_NE USA_R64_SE USA_R64_SW USA_R64_NW USA_POCI USA_ROCI USA_RMW USA_EYE TOKYO_LAT TOKYO_LON TOKYO_GRADE TOKYO_WIND TOKYO_PRES TOKYO_R50_DIR TOKYO_R50_LONG TOKYO_R50_SHORT TOKYO_R30_DIR TOKYO_R30_LONG TOKYO_R30_SHORT TOKYO_LAND CMA_LAT CMA_LON CMA_CAT CMA_WIND CMA_PRES HKO_LAT HKO_LON HKO_CAT HKO_WIND HKO_PRES NEWDELHI_LAT NEWDELHI_LON NEWDELHI_GRADE NEWDELHI_WIND NEWDELHI_PRES NEWDELHI_CI NEWDELHI_DP NEWDELHI_POCI REUNION_LAT REUNION_LON REUNION_TYPE REUNION_WIND REUNION_PRES REUNION_TNUM REUNION_CI REUNION_RMW REUNION_R34_NE REUNION_R34_SE REUNION_R34_SW REUNION_R34_NW REUNION_R50_NE REUNION_R50_SE REUNION_R50_SW REUNION_R50_NW REUNION_R64_NE REUNION_R64_SE REUNION_R64_SW REUNION_R64_NW BOM_LAT BOM_LON BOM_TYPE BOM_WIND BOM_PRES BOM_TNUM BOM_CI BOM_RMW BOM_R34_NE BOM_R34_SE BOM_R34_SW BOM_R34_NW BOM_R50_NE BOM_R50_SE BOM_R50_SW BOM_R50_NW BOM_R64_NE BOM_R64_SE BOM_R64_SW BOM_R64_NW BOM_ROCI BOM_POCI BOM_EYE BOM_POS_METHOD BOM_PRES_METHOD NADI_LAT NADI_LON NADI_CAT NADI_WIND NADI_PRES WELLINGTON_LAT WELLINGTON_LON WELLINGTON_WIND WELLINGTON_PRES DS824_LAT DS824_LON DS824_STAGE DS824_WIND DS824_PRES TD9636_LAT TD9636_LON TD9636_STAGE TD9636_WIND TD9636_PRES TD9635_LAT TD9635_LON TD9635_WIND TD9635_PRES TD9635_ROCI NEUMANN_LAT NEUMANN_LON NEUMANN_CLASS NEUMANN_WIND NEUMANN_PRES MLC_LAT MLC_LON MLC_CLASS MLC_WIND MLC_PRES USA_GUST BOM_GUST BOM_GUST_PER REUNION_GUST REUNION_GUST_PER USA_SEAHGT USA_SEARAD_NE USA_SEARAD_SE USA_SEARAD_SW USA_SEARAD_NW STORM_SPEED STORM_DIR
1914275N11094 1914 37 NI BB NOT_NAMED 1914-10-02 00:00:00 TS 11.4000 94.1000 main 482 480 _________O____ -1 11.4000 94.1000 TC 30 4 318
1914275N11094 1914 37 NI BB NOT_NAMED 1914-10-02 03:00:00 TS 11.5400 93.9750 main 482 463 _________PO___ -1 11.6100 93.9126 TC 30 11.4000 94.1000 1 5 314
1914275N11094 1914 37 NI BB NOT_NAMED 1914-10-02 06:00:00 TS 11.7176 93.7646 main 463 445 _________OP___ -1 11.8000 93.7000 TC 30 11.5940 93.8614 1 6 308
1914275N11094 1914 37 NI BB NOT_NAMED 1914-10-02 09:00:00 TS 11.8816 93.5263 main 447 438 _________PP___ -1 11.9575 93.4500 TC 30 11.7803 93.6281 1 5 304
1914275N11094 1914 37 NI BB NOT_NAMED 1914-10-02 12:00:00 TS 12.0257 93.3029 main 441 426 _________OP___ -1 12.1000 93.2000 TC 30 11.9514 93.4057 1 5 305
1914275N11094 1914 37 NI BB NOT_NAMED 1914-10-02 15:00:00 TS 12.1750 93.0962 main 426 419 _________PO___ -1 12.2500 92.9925 TC 30 12.1000 93.2000 1 5 307
1914275N11094 1914 37 NI BB NOT_NAMED 1914-10-02 18:00:00 TS 12.3123 92.9063 main 423 417 _________OP___ -1 12.4000 92.8000 TC 30 12.2245 93.0127 1 4 305
1914275N11094 1914 37 NI BB NOT_NAMED 1914-10-02 21:00:00 TS 12.4336 92.7258 main 422 407 _________PP___ -1 12.5199 92.6223 TC 30 12.3472 92.8293 1 5 307
1914275N11094 1914 37 NI BB NOT_NAMED 1914-10-03 00:00:00 TS 12.5982 92.5156 main 412 405 _________OP___ -1 12.7000 92.4000 TC 30 12.4963 92.6313 1 6 312
1914275N11094 1914 37 NI BB NOT_NAMED 1914-10-03 03:00:00 TS 12.8600 92.2326 main 402 396 _________PO___ -1 13.0201 92.0651 TC 30 12.7000 92.4000 1 9 315
1914275N11094 1914 37 NI BB NOT_NAMED 1914-10-03 06:00:00 TS 13.1944 91.8935 main 396 395 _________OP___ -1 13.4000 91.7000 TC 30 12.9887 92.0870 1 9 316
1914275N11094 1914 37 NI BB NOT_NAMED 1914-10-03 09:00:00 TS 13.5414 91.5603 main 395 388 _________PP___ -1 13.7500 91.3775 TC 30 13.3329 91.7431 1 10 319
1914275N11094 1914 37 NI BB NOT_NAMED 1914-10-03 12:00:00 TS 13.9053 91.2513 main 390 389 _________OP___ -1 14.1000 91.1000 TC 30 13.7106 91.4026 1 9 323
1914275N11094 1914 37 NI BB NOT_NAMED 1914-10-03 15:00:00 TS 14.2712 90.9887 main 392 391 _________PO___ -1 14.4425 90.8774 TC 30 14.1000 91.1000 1 9 328
1914275N11094 1914 37 NI BB NOT_NAMED 1914-10-03 18:00:00 TS 14.6399 90.7807 main 397 392 _________OP___ -1 14.8000 90.7000 TC 30 14.4798 90.8614 1 9 334
1914275N11094 1914 37 NI BB NOT_NAMED 1914-10-03 21:00:00 TS 15.0361 90.5975 main 401 398 _________PP___ -1 15.2075 90.5275 TC 30 14.8648 90.6674 1 8 338
1914275N11094 1914 37 NI BB NOT_NAMED 1914-10-04 00:00:00 TS 15.4212 90.4573 main 401 401 _________OP___ -1 15.6000 90.4000 TC 30 15.2424 90.5146 1 8 343
1914275N11094 1914 37 NI BB NOT_NAMED 1914-10-04 03:00:00 TS 15.7575 90.3675 main 407 407 _________PO___ -1 15.9150 90.3349 TC 30 15.6000 90.4000 1 7 347
1914275N11094 1914 37 NI BB NOT_NAMED 1914-10-04 06:00:00 TS 16.0607 90.3008 main 417 417 _________OP___ -1 16.2000 90.3000 TC 30 15.9215 90.3016 1 6 349
1914275N11094 1914 37 NI BB NOT_NAMED 1914-10-04 09:00:00 TS 16.3612 90.2411 main 429 429 _________PP___ -1 16.5000 90.2425 TC 30 16.2224 90.2398 1 6 351
1914275N11094 1914 37 NI BB NOT_NAMED 1914-10-04 12:00:00 TS 16.6561 90.2040 main 434 434 _________OP___ -1 16.8000 90.2000 TC 30 16.5121 90.2080 1 6 357
1914275N11094 1914 37 NI BB NOT_NAMED 1914-10-04 15:00:00 TS 16.9500 90.1925 main 432 421 _________PO___ -1 17.1000 90.1850 TC 30 16.8000 90.2000 1 6 2
1914275N11094 1914 37 NI BB NOT_NAMED 1914-10-04 18:00:00 TS 17.2248 90.2055 main 421 405 _________OP___ -1 17.4000 90.2000 TC 30 17.0935 90.2097 1 6 3
1914275N11094 1914 37 NI BB NOT_NAMED 1914-10-04 21:00:00 TS 17.5155 90.2365 main 405 375 _________PP___ -1 17.7000 90.2425 TC 30 17.3926 90.2325 1 6 7
1914275N11094 1914 37 NI BB NOT_NAMED 1914-10-05 00:00:00 TS 17.7969 90.2760 main 375 359 _________OP___ -1 18.0000 90.3000 TC 30 17.6954 90.2640 1 5 7
1914275N11094 1914 37 NI BB NOT_NAMED 1914-10-05 03:00:00 NR 18.0000 90.3000 main 359 __________O___ -1 TC 18.0000 90.3000 1 4 0

IBTrACS Databaseについて

本データベースは、米国NOAAが公開する1842年以降の世界の熱帯低気圧のベストトラックデータアーカイブInternational Best Track Archive for Climate Stewardship (IBTrACS)を、ウェブで閲覧しやすい形式に変換したものです。

最終更新日:2021-12-06